sensor_id;sensor_type;location;lat;lon;timestamp;pressure;altitude;pressure_sealevel;temperature;humidity
47054;BME280;32811;52.382;5.270;2023-04-10T00:01:06;102157.06;;;7.77;100.00
47054;BME280;32811;52.382;5.270;2023-04-10T00:03:32;102142.94;;;7.66;100.00
47054;BME280;32811;52.382;5.270;2023-04-10T00:05:59;102152.47;;;7.70;100.00
47054;BME280;32811;52.382;5.270;2023-04-10T00:08:26;102136.34;;;7.74;100.00
47054;BME280;32811;52.382;5.270;2023-04-10T00:10:53;102140.47;;;7.69;100.00
47054;BME280;32811;52.382;5.270;2023-04-10T00:13:19;102141.50;;;7.74;100.00
47054;BME280;32811;52.382;5.270;2023-04-10T00:15:46;102125.97;;;7.71;100.00
47054;BME280;32811;52.382;5.270;2023-04-10T00:18:13;102131.88;;;7.68;100.00
47054;BME280;32811;52.382;5.270;2023-04-10T00:20:39;102116.94;;;7.58;100.00
47054;BME280;32811;52.382;5.270;2023-04-10T00:23:06;102109.91;;;7.54;100.00
47054;BME280;32811;52.382;5.270;2023-04-10T00:25:32;102103.28;;;7.59;100.00
47054;BME280;32811;52.382;5.270;2023-04-10T00:27:59;102097.41;;;7.63;100.00
47054;BME280;32811;52.382;5.270;2023-04-10T00:30:26;102093.97;;;7.63;100.00
47054;BME280;32811;52.382;5.270;2023-04-10T00:32:52;102090.06;;;7.50;100.00
47054;BME280;32811;52.382;5.270;2023-04-10T00:35:19;102088.72;;;7.60;100.00
47054;BME280;32811;52.382;5.270;2023-04-10T00:37:45;102074.78;;;7.53;100.00
47054;BME280;32811;52.382;5.270;2023-04-10T00:40:12;102083.44;;;7.55;100.00
47054;BME280;32811;52.382;5.270;2023-04-10T00:42:39;102078.16;;;7.52;100.00
47054;BME280;32811;52.382;5.270;2023-04-10T00:45:06;102082.16;;;7.44;100.00
47054;BME280;32811;52.382;5.270;2023-04-10T00:47:33;102081.91;;;7.38;100.00
47054;BME280;32811;52.382;5.270;2023-04-10T00:50:00;102071.75;;;7.41;100.00
47054;BME280;32811;52.382;5.270;2023-04-10T00:52:26;102071.22;;;7.49;100.00
47054;BME280;32811;52.382;5.270;2023-04-10T00:54:53;102072.28;;;7.55;100.00
47054;BME280;32811;52.382;5.270;2023-04-10T00:57:20;102067.72;;;7.47;100.00
47054;BME280;32811;52.382;5.270;2023-04-10T00:59:47;102065.91;;;7.45;100.00
47054;BME280;32811;52.382;5.270;2023-04-10T01:02:14;102071.53;;;7.35;100.00
47054;BME280;32811;52.382;5.270;2023-04-10T01:04:41;102072.06;;;7.26;100.00
47054;BME280;32811;52.382;5.270;2023-04-10T01:07:45;102086.47;;;7.22;100.00
47054;BME280;32811;52.382;5.270;2023-04-10T01:10:03;102070.91;;;7.18;100.00
47054;BME280;32811;52.382;5.270;2023-04-10T01:13:05;102074.47;;;7.21;100.00
47054;BME280;32811;52.382;5.270;2023-04-10T01:15:41;102068.94;;;7.12;100.00
47054;BME280;32811;52.382;5.270;2023-04-10T01:18:23;102055.16;;;7.09;100.00
47054;BME280;32811;52.382;5.270;2023-04-10T01:20:52;102054.31;;;7.10;100.00
47054;BME280;32811;52.382;5.270;2023-04-10T01:26:00;102045.03;;;7.13;100.00
47054;BME280;32811;52.382;5.270;2023-04-10T01:28:44;102045.38;;;7.22;100.00
47054;BME280;32811;52.382;5.270;2023-04-10T01:31:18;102032.13;;;7.12;100.00
47054;BME280;32811;52.382;5.270;2023-04-10T01:33:49;102037.34;;;7.13;100.00
47054;BME280;32811;52.382;5.270;2023-04-10T01:36:23;102036.41;;;7.11;100.00
47054;BME280;32811;52.382;5.270;2023-04-10T01:38:53;102039.75;;;7.09;100.00
47054;BME280;32811;52.382;5.270;2023-04-10T01:41:21;102033.00;;;7.12;100.00
47054;BME280;32811;52.382;5.270;2023-04-10T01:43:50;102034.59;;;7.09;100.00
47054;BME280;32811;52.382;5.270;2023-04-10T01:46:19;102017.16;;;7.00;100.00
47054;BME280;32811;52.382;5.270;2023-04-10T01:48:48;102017.78;;;6.94;100.00
47054;BME280;32811;52.382;5.270;2023-04-10T01:51:16;102014.25;;;6.91;100.00
47054;BME280;32811;52.382;5.270;2023-04-10T01:53:43;102014.69;;;6.80;100.00
47054;BME280;32811;52.382;5.270;2023-04-10T01:56:11;102018.34;;;6.85;100.00
47054;BME280;32811;52.382;5.270;2023-04-10T01:58:38;102007.34;;;6.90;100.00
47054;BME280;32811;52.382;5.270;2023-04-10T02:01:06;102007.47;;;6.93;100.00
47054;BME280;32811;52.382;5.270;2023-04-10T02:03:39;102002.72;;;6.81;100.00
47054;BME280;32811;52.382;5.270;2023-04-10T02:08:56;102002.69;;;6.79;100.00
47054;BME280;32811;52.382;5.270;2023-04-10T02:11:33;101998.88;;;6.70;100.00
47054;BME280;32811;52.382;5.270;2023-04-10T02:14:07;102014.69;;;6.80;100.00
47054;BME280;32811;52.382;5.270;2023-04-10T02:16:37;102005.53;;;6.87;100.00
47054;BME280;32811;52.382;5.270;2023-04-10T02:19:04;102001.28;;;6.88;100.00
47054;BME280;32811;52.382;5.270;2023-04-10T02:21:32;102007.00;;;6.80;100.00
47054;BME280;32811;52.382;5.270;2023-04-10T02:23:59;101995.28;;;6.64;100.00
47054;BME280;32811;52.382;5.270;2023-04-10T02:26:26;102006.47;;;6.67;100.00
47054;BME280;32811;52.382;5.270;2023-04-10T02:28:53;101992.59;;;6.61;100.00
47054;BME280;32811;52.382;5.270;2023-04-10T02:31:19;101982.59;;;6.47;100.00
47054;BME280;32811;52.382;5.270;2023-04-10T02:33:46;102001.34;;;6.67;100.00
47054;BME280;32811;52.382;5.270;2023-04-10T02:36:12;102000.22;;;6.60;100.00
47054;BME280;32811;52.382;5.270;2023-04-10T02:38:39;101975.84;;;6.49;100.00
47054;BME280;32811;52.382;5.270;2023-04-10T02:41:06;101991.22;;;6.49;100.00
47054;BME280;32811;52.382;5.270;2023-04-10T02:43:32;102001.84;;;6.58;100.00
47054;BME280;32811;52.382;5.270;2023-04-10T02:45:59;102006.03;;;6.56;100.00
47054;BME280;32811;52.382;5.270;2023-04-10T02:48:25;102007.81;;;6.57;100.00
47054;BME280;32811;52.382;5.270;2023-04-10T02:50:56;102009.19;;;6.49;100.00
47054;BME280;32811;52.382;5.270;2023-04-10T02:53:23;102011.00;;;6.51;100.00
47054;BME280;32811;52.382;5.270;2023-04-10T02:55:52;101981.88;;;6.28;100.00
47054;BME280;32811;52.382;5.270;2023-04-10T02:58:19;102009.13;;;6.47;100.00
47054;BME280;32811;52.382;5.270;2023-04-10T03:00:48;102014.25;;;6.47;100.00
47054;BME280;32811;52.382;5.270;2023-04-10T03:03:18;102012.31;;;6.41;100.00
47054;BME280;32811;52.382;5.270;2023-04-10T03:05:45;102008.34;;;6.50;100.00
47054;BME280;32811;52.382;5.270;2023-04-10T03:08:12;102006.50;;;6.46;100.00
47054;BME280;32811;52.382;5.270;2023-04-10T03:10:39;102008.81;;;6.39;100.00
47054;BME280;32811;52.382;5.270;2023-04-10T03:13:08;102006.16;;;6.36;100.00
47054;BME280;32811;52.382;5.270;2023-04-10T03:15:34;101993.63;;;6.23;100.00
47054;BME280;32811;52.382;5.270;2023-04-10T03:18:01;101992.69;;;6.21;100.00
47054;BME280;32811;52.382;5.270;2023-04-10T03:20:28;102008.19;;;6.24;100.00
47054;BME280;32811;52.382;5.270;2023-04-10T03:22:55;101994.88;;;6.12;100.00
47054;BME280;32811;52.382;5.270;2023-04-10T03:25:22;102011.31;;;6.17;100.00
47054;BME280;32811;52.382;5.270;2023-04-10T03:27:48;101991.38;;;6.10;100.00
47054;BME280;32811;52.382;5.270;2023-04-10T03:30:15;101983.50;;;6.05;100.00
47054;BME280;32811;52.382;5.270;2023-04-10T03:32:42;101984.56;;;6.10;100.00
47054;BME280;32811;52.382;5.270;2023-04-10T03:35:09;101982.75;;;6.08;100.00
47054;BME280;32811;52.382;5.270;2023-04-10T03:37:36;101973.28;;;6.07;100.00
47054;BME280;32811;52.382;5.270;2023-04-10T03:40:07;101972.25;;;6.01;100.00
47054;BME280;32811;52.382;5.270;2023-04-10T03:42:34;101980.41;;;6.14;100.00
47054;BME280;32811;52.382;5.270;2023-04-10T03:45:01;101978.50;;;6.08;100.00
47054;BME280;32811;52.382;5.270;2023-04-10T03:47:30;101961.41;;;6.09;100.00
47054;BME280;32811;52.382;5.270;2023-04-10T03:50:00;101963.31;;;6.13;100.00
47054;BME280;32811;52.382;5.270;2023-04-10T03:52:26;101969.44;;;6.16;100.00
47054;BME280;32811;52.382;5.270;2023-04-10T03:54:53;101965.22;;;6.18;100.00
47054;BME280;32811;52.382;5.270;2023-04-10T03:57:20;101957.75;;;6.23;100.00
47054;BME280;32811;52.382;5.270;2023-04-10T03:59:47;101954.66;;;6.32;100.00
47054;BME280;32811;52.382;5.270;2023-04-10T04:02:13;101960.19;;;6.42;100.00
47054;BME280;32811;52.382;5.270;2023-04-10T04:04:40;101942.84;;;6.35;100.00
47054;BME280;32811;52.382;5.270;2023-04-10T04:07:07;101941.56;;;6.47;100.00
47054;BME280;32811;52.382;5.270;2023-04-10T04:09:35;101921.63;;;6.39;100.00
47054;BME280;32811;52.382;5.270;2023-04-10T04:12:02;101946.94;;;6.53;100.00
47054;BME280;32811;52.382;5.270;2023-04-10T04:14:28;101945.31;;;6.55;100.00
47054;BME280;32811;52.382;5.270;2023-04-10T04:16:55;101960.44;;;6.49;100.00
47054;BME280;32811;52.382;5.270;2023-04-10T04:19:22;101958.31;;;6.38;100.00
47054;BME280;32811;52.382;5.270;2023-04-10T04:21:48;101944.47;;;6.33;100.00
47054;BME280;32811;52.382;5.270;2023-04-10T04:24:15;101953.41;;;6.43;100.00
47054;BME280;32811;52.382;5.270;2023-04-10T04:26:42;101954.09;;;6.39;100.00
47054;BME280;32811;52.382;5.270;2023-04-10T04:29:08;101934.44;;;6.39;100.00
47054;BME280;32811;52.382;5.270;2023-04-10T04:31:35;101934.56;;;6.42;100.00
47054;BME280;32811;52.382;5.270;2023-04-10T04:34:02;101917.00;;;6.31;100.00
47054;BME280;32811;52.382;5.270;2023-04-10T04:36:28;101934.44;;;6.39;100.00
47054;BME280;32811;52.382;5.270;2023-04-10T04:38:55;101919.69;;;6.34;100.00
47054;BME280;32811;52.382;5.270;2023-04-10T04:41:21;101923.50;;;6.66;100.00
47054;BME280;32811;52.382;5.270;2023-04-10T04:43:48;101919.94;;;6.62;100.00
47054;BME280;32811;52.382;5.270;2023-04-10T04:46:14;101923.44;;;6.64;100.00
47054;BME280;32811;52.382;5.270;2023-04-10T04:48:41;101923.59;;;6.69;100.00
47054;BME280;32811;52.382;5.270;2023-04-10T04:51:08;101908.88;;;6.63;100.00
47054;BME280;32811;52.382;5.270;2023-04-10T04:53:34;101931.31;;;6.69;100.00
47054;BME280;32811;52.382;5.270;2023-04-10T04:56:02;101922.84;;;6.72;100.00
47054;BME280;32811;52.382;5.270;2023-04-10T04:58:28;101925.47;;;6.73;100.00
47054;BME280;32811;52.382;5.270;2023-04-10T05:00:55;101940.25;;;6.79;100.00
47054;BME280;32811;52.382;5.270;2023-04-10T05:03:22;101911.72;;;6.71;100.00
47054;BME280;32811;52.382;5.270;2023-04-10T05:05:49;101893.75;;;6.71;100.00
47054;BME280;32811;52.382;5.270;2023-04-10T05:08:15;101914.78;;;6.85;100.00
47054;BME280;32811;52.382;5.270;2023-04-10T05:10:42;101902.72;;;6.82;100.00
47054;BME280;32811;52.382;5.270;2023-04-10T05:13:08;101900.22;;;6.84;100.00
47054;BME280;32811;52.382;5.270;2023-04-10T05:15:35;101909.13;;;6.94;100.00
47054;BME280;32811;52.382;5.270;2023-04-10T05:18:02;101902.84;;;6.85;100.00
47054;BME280;32811;52.382;5.270;2023-04-10T05:20:28;101912.84;;;7.02;100.00
47054;BME280;32811;52.382;5.270;2023-04-10T05:22:55;101886.41;;;6.80;100.00
47054;BME280;32811;52.382;5.270;2023-04-10T05:25:23;101916.97;;;6.98;100.00
47054;BME280;32811;52.382;5.270;2023-04-10T05:27:50;101897.06;;;6.91;100.00
47054;BME280;32811;52.382;5.270;2023-04-10T05:30:16;101890.91;;;6.88;100.00
47054;BME280;32811;52.382;5.270;2023-04-10T05:32:43;101891.81;;;6.88;100.00
47054;BME280;32811;52.382;5.270;2023-04-10T05:35:11;101912.16;;;7.06;100.00
47054;BME280;32811;52.382;5.270;2023-04-10T05:37:38;101910.44;;;7.06;100.00
47054;BME280;32811;52.382;5.270;2023-04-10T05:40:05;101907.22;;;7.12;100.00
47054;BME280;32811;52.382;5.270;2023-04-10T05:42:32;101918.41;;;7.14;100.00
47054;BME280;32811;52.382;5.270;2023-04-10T05:44:58;101916.50;;;7.09;100.00
47054;BME280;32811;52.382;5.270;2023-04-10T05:47:25;101908.81;;;7.09;100.00
47054;BME280;32811;52.382;5.270;2023-04-10T05:49:51;101889.97;;;7.08;100.00
47054;BME280;32811;52.382;5.270;2023-04-10T05:52:18;101901.59;;;7.22;100.00
47054;BME280;32811;52.382;5.270;2023-04-10T05:54:44;101914.88;;;7.35;100.00
47054;BME280;32811;52.382;5.270;2023-04-10T05:57:11;101901.13;;;7.34;100.00
47054;BME280;32811;52.382;5.270;2023-04-10T05:59:38;101866.41;;;7.20;100.00
47054;BME280;32811;52.382;5.270;2023-04-10T06:02:04;101885.69;;;7.33;100.00
47054;BME280;32811;52.382;5.270;2023-04-10T06:04:31;101877.06;;;7.31;100.00
47054;BME280;32811;52.382;5.270;2023-04-10T06:06:58;101881.78;;;7.44;100.00
47054;BME280;32811;52.382;5.270;2023-04-10T06:09:25;101885.44;;;7.51;100.00
47054;BME280;32811;52.382;5.270;2023-04-10T06:11:51;101872.63;;;7.52;100.00
47054;BME280;32811;52.382;5.270;2023-04-10T06:14:19;101862.19;;;7.47;100.00
47054;BME280;32811;52.382;5.270;2023-04-10T06:16:46;101857.22;;;7.52;100.00
47054;BME280;32811;52.382;5.270;2023-04-10T06:19:12;101869.63;;;7.64;100.00
47054;BME280;32811;52.382;5.270;2023-04-10T06:21:39;101870.00;;;7.76;100.00
47054;BME280;32811;52.382;5.270;2023-04-10T06:24:05;101865.84;;;7.80;100.00
47054;BME280;32811;52.382;5.270;2023-04-10T06:26:33;101868.44;;;7.81;100.00
47054;BME280;32811;52.382;5.270;2023-04-10T06:28:59;101841.22;;;7.86;100.00
47054;BME280;32811;52.382;5.270;2023-04-10T06:31:26;101851.09;;;8.01;100.00
47054;BME280;32811;52.382;5.270;2023-04-10T06:33:53;101840.78;;;8.00;100.00
47054;BME280;32811;52.382;5.270;2023-04-10T06:36:19;101803.97;;;7.74;100.00
47054;BME280;32811;52.382;5.270;2023-04-10T06:38:46;101828.88;;;8.03;100.00
47054;BME280;32811;52.382;5.270;2023-04-10T06:41:12;101823.84;;;8.06;100.00
47054;BME280;32811;52.382;5.270;2023-04-10T06:43:39;101834.66;;;8.25;100.00
47054;BME280;32811;52.382;5.270;2023-04-10T06:46:06;101824.56;;;8.31;100.00
47054;BME280;32811;52.382;5.270;2023-04-10T06:48:33;101816.13;;;8.35;100.00
47054;BME280;32811;52.382;5.270;2023-04-10T06:51:00;101805.91;;;8.38;100.00
47054;BME280;32811;52.382;5.270;2023-04-10T06:53:26;101792.34;;;8.42;100.00
47054;BME280;32811;52.382;5.270;2023-04-10T06:55:53;101811.72;;;8.60;100.00
47054;BME280;32811;52.382;5.270;2023-04-10T06:58:19;101812.78;;;8.68;100.00
47054;BME280;32811;52.382;5.270;2023-04-10T07:00:46;101790.53;;;8.70;100.00
47054;BME280;32811;52.382;5.270;2023-04-10T07:03:13;101798.59;;;8.82;100.00
47054;BME280;32811;52.382;5.270;2023-04-10T07:05:39;101779.72;;;8.83;100.00
47054;BME280;32811;52.382;5.270;2023-04-10T07:08:07;101791.31;;;8.99;100.00
47054;BME280;32811;52.382;5.270;2023-04-10T07:10:34;101794.91;;;9.06;100.00
47054;BME280;32811;52.382;5.270;2023-04-10T07:13:01;101776.88;;;9.04;100.00
47054;BME280;32811;52.382;5.270;2023-04-10T07:15:27;101788.44;;;9.20;100.00
47054;BME280;32811;52.382;5.270;2023-04-10T07:17:54;101768.75;;;9.22;100.00
47054;BME280;32811;52.382;5.270;2023-04-10T07:20:21;101764.59;;;9.29;100.00
47054;BME280;32811;52.382;5.270;2023-04-10T07:22:48;101749.22;;;9.32;100.00
47054;BME280;32811;52.382;5.270;2023-04-10T07:25:15;101750.78;;;9.25;100.00
47054;BME280;32811;52.382;5.270;2023-04-10T07:27:42;101756.41;;;9.45;100.00
47054;BME280;32811;52.382;5.270;2023-04-10T07:30:08;101737.66;;;9.52;100.00
47054;BME280;32811;52.382;5.270;2023-04-10T07:32:38;101736.41;;;9.73;100.00
47054;BME280;32811;52.382;5.270;2023-04-10T07:35:08;101757.75;;;10.07;100.00
47054;BME280;32811;52.382;5.270;2023-04-10T07:37:34;101746.34;;;10.35;100.00
47054;BME280;32811;52.382;5.270;2023-04-10T07:40:01;101740.22;;;10.75;100.00
47054;BME280;32811;52.382;5.270;2023-04-10T07:42:28;101752.66;;;10.96;100.00
47054;BME280;32811;52.382;5.270;2023-04-10T07:44:56;101726.66;;;11.40;100.00
47054;BME280;32811;52.382;5.270;2023-04-10T07:47:22;101727.47;;;11.36;100.00
47054;BME280;32811;52.382;5.270;2023-04-10T07:49:49;101711.19;;;11.42;100.00
47054;BME280;32811;52.382;5.270;2023-04-10T07:52:16;101715.28;;;11.29;100.00
47054;BME280;32811;52.382;5.270;2023-04-10T07:54:43;101722.00;;;11.18;100.00
47054;BME280;32811;52.382;5.270;2023-04-10T07:57:09;101711.66;;;11.18;100.00
47054;BME280;32811;52.382;5.270;2023-04-10T07:59:36;101713.59;;;11.30;100.00
47054;BME280;32811;52.382;5.270;2023-04-10T08:02:02;101696.16;;;11.18;100.00
47054;BME280;32811;52.382;5.270;2023-04-10T08:04:29;101706.59;;;11.24;100.00
47054;BME280;32811;52.382;5.270;2023-04-10T08:06:56;101707.41;;;11.20;100.00
47054;BME280;32811;52.382;5.270;2023-04-10T08:09:23;101701.88;;;10.97;100.00
47054;BME280;32811;52.382;5.270;2023-04-10T08:11:50;101703.50;;;10.93;100.00
47054;BME280;32811;52.382;5.270;2023-04-10T08:14:16;101694.09;;;10.95;100.00
47054;BME280;32811;52.382;5.270;2023-04-10T08:16:44;101708.94;;;11.09;100.00
47054;BME280;32811;52.382;5.270;2023-04-10T08:19:10;101699.59;;;11.18;100.00
47054;BME280;32811;52.382;5.270;2023-04-10T08:21:37;101684.38;;;11.35;100.00
47054;BME280;32811;52.382;5.270;2023-04-10T08:24:04;101668.97;;;11.41;100.00
47054;BME280;32811;52.382;5.270;2023-04-10T08:26:30;101683.09;;;11.67;100.00
47054;BME280;32811;52.382;5.270;2023-04-10T08:28:58;101657.09;;;11.57;100.00
47054;BME280;32811;52.382;5.270;2023-04-10T08:31:27;101684.03;;;11.73;100.00
47054;BME280;32811;52.382;5.270;2023-04-10T08:33:55;101667.50;;;11.62;100.00
47054;BME280;32811;52.382;5.270;2023-04-10T08:36:22;101653.66;;;11.57;100.00
47054;BME280;32811;52.382;5.270;2023-04-10T08:38:49;101639.06;;;11.62;100.00
47054;BME280;32811;52.382;5.270;2023-04-10T08:41:17;101667.53;;;11.65;100.00
47054;BME280;32811;52.382;5.270;2023-04-10T08:43:44;101655.34;;;11.55;100.00
47054;BME280;32811;52.382;5.270;2023-04-10T08:46:14;101645.25;;;11.73;100.00
47054;BME280;32811;52.382;5.270;2023-04-10T08:48:57;101644.47;;;11.80;100.00
47054;BME280;32811;52.382;5.270;2023-04-10T08:51:39;101637.47;;;11.70;100.00
47054;BME280;32811;52.382;5.270;2023-04-10T08:54:18;101646.88;;;11.67;100.00
47054;BME280;32811;52.382;5.270;2023-04-10T08:56:51;101647.69;;;11.61;100.00
47054;BME280;32811;52.382;5.270;2023-04-10T08:59:19;101645.00;;;11.55;100.00
47054;BME280;32811;52.382;5.270;2023-04-10T09:01:46;101650.13;;;11.52;100.00
47054;BME280;32811;52.382;5.270;2023-04-10T09:04:13;101637.88;;;11.38;100.00
47054;BME280;32811;52.382;5.270;2023-04-10T09:06:42;101632.78;;;11.41;100.00
47054;BME280;32811;52.382;5.270;2023-04-10T09:09:08;101620.59;;;11.33;100.00
47054;BME280;32811;52.382;5.270;2023-04-10T09:14:21;101616.38;;;11.39;100.00
47054;BME280;32811;52.382;5.270;2023-04-10T09:16:49;101623.38;;;11.48;100.00
47054;BME280;32811;52.382;5.270;2023-04-10T09:19:32;101611.16;;;11.38;100.00
47054;BME280;32811;52.382;5.270;2023-04-10T09:21:59;101618.25;;;11.51;100.00
47054;BME280;32811;52.382;5.270;2023-04-10T09:24:26;101618.25;;;11.51;100.00
47054;BME280;32811;52.382;5.270;2023-04-10T09:26:53;101595.63;;;11.35;100.00
47054;BME280;32811;52.382;5.270;2023-04-10T09:29:20;101609.66;;;11.52;100.00
47054;BME280;32811;52.382;5.270;2023-04-10T09:31:46;101601.00;;;11.52;100.00
47054;BME280;32811;52.382;5.270;2023-04-10T09:34:17;101595.84;;;11.52;100.00
47054;BME280;32811;52.382;5.270;2023-04-10T09:39:18;101596.94;;;11.71;100.00
47054;BME280;32811;52.382;5.270;2023-04-10T09:41:51;101584.94;;;11.77;100.00
47054;BME280;32811;52.382;5.270;2023-04-10T09:47:16;101576.53;;;11.94;100.00
47054;BME280;32811;52.382;5.270;2023-04-10T09:49:53;101565.31;;;11.90;100.00
47054;BME280;32811;52.382;5.270;2023-04-10T09:52:21;101558.66;;;12.18;100.00
47054;BME280;32811;52.382;5.270;2023-04-10T09:54:48;101550.22;;;12.39;100.00
47054;BME280;32811;52.382;5.270;2023-04-10T09:57:16;101547.63;;;12.41;100.00
47054;BME280;32811;52.382;5.270;2023-04-10T09:59:50;101547.78;;;12.55;100.00
47054;BME280;32811;52.382;5.270;2023-04-10T10:02:18;101526.06;;;12.40;100.00
47054;BME280;32811;52.382;5.270;2023-04-10T10:04:46;101544.22;;;12.42;100.00
47054;BME280;32811;52.382;5.270;2023-04-10T10:07:15;101534.84;;;12.58;100.00
47054;BME280;32811;52.382;5.270;2023-04-10T10:09:43;101539.03;;;12.45;100.00
47054;BME280;32811;52.382;5.270;2023-04-10T10:12:12;101531.38;;;12.57;100.00
47054;BME280;32811;52.382;5.270;2023-04-10T10:17:20;101513.09;;;12.37;100.00
47054;BME280;32811;52.382;5.270;2023-04-10T10:19:58;101514.03;;;12.47;100.00
47054;BME280;32811;52.382;5.270;2023-04-10T10:22:27;101508.91;;;12.53;100.00
47054;BME280;32811;52.382;5.270;2023-04-10T10:24:55;101499.41;;;12.57;100.00
47054;BME280;32811;52.382;5.270;2023-04-10T10:27:25;101486.38;;;12.43;100.00
47054;BME280;32811;52.382;5.270;2023-04-10T10:29:53;101495.97;;;12.56;100.00
47054;BME280;32811;52.382;5.270;2023-04-10T10:32:20;101472.75;;;12.70;100.00
47054;BME280;32811;52.382;5.270;2023-04-10T10:34:51;101484.00;;;12.77;100.00
47054;BME280;32811;52.382;5.270;2023-04-10T10:37:19;101462.47;;;12.87;100.00
47054;BME280;32811;52.382;5.270;2023-04-10T10:40:09;101467.72;;;12.99;100.00
47054;BME280;32811;52.382;5.270;2023-04-10T10:45:20;101468.69;;;13.24;99.77
47054;BME280;32811;52.382;5.270;2023-04-10T10:47:53;101448.88;;;13.37;98.56
47054;BME280;32811;52.382;5.270;2023-04-10T10:50:20;101454.94;;;13.44;95.33
47054;BME280;32811;52.382;5.270;2023-04-10T10:52:51;101445.47;;;13.61;95.68
47054;BME280;32811;52.382;5.270;2023-04-10T10:58:03;101427.34;;;14.09;95.61
47054;BME280;32811;52.382;5.270;2023-04-10T11:05:56;101409.09;;;14.61;93.84
47054;BME280;32811;52.382;5.270;2023-04-10T11:13:37;101396.16;;;14.29;88.82
47054;BME280;32811;52.382;5.270;2023-04-10T11:16:06;101388.34;;;14.30;88.42
47054;BME280;32811;52.382;5.270;2023-04-10T11:21:31;101373.66;;;14.19;88.28
47054;BME280;32811;52.382;5.270;2023-04-10T11:28:59;101344.25;;;14.10;94.58
47054;BME280;32811;52.382;5.270;2023-04-10T11:31:26;101375.34;;;14.37;99.50
47054;BME280;32811;52.382;5.270;2023-04-10T11:36:26;101355.44;;;14.45;93.11
47054;BME280;32811;52.382;5.270;2023-04-10T11:41:29;101345.81;;;14.70;92.55
47054;BME280;32811;52.382;5.270;2023-04-10T11:43:57;101331.06;;;14.83;91.04
47054;BME280;32811;52.382;5.270;2023-04-10T11:46:24;101338.69;;;15.12;91.74
47054;BME280;32811;52.382;5.270;2023-04-10T11:48:53;101324.78;;;15.14;87.65
47054;BME280;32811;52.382;5.270;2023-04-10T11:51:21;101316.16;;;15.09;89.68
47054;BME280;32811;52.382;5.270;2023-04-10T11:53:48;101316.97;;;15.16;93.93
47054;BME280;32811;52.382;5.270;2023-04-10T11:56:16;101313.47;;;15.20;86.61
47054;BME280;32811;52.382;5.270;2023-04-10T11:58:43;101330.66;;;15.38;90.32
47054;BME280;32811;52.382;5.270;2023-04-10T12:01:10;101306.47;;;15.30;85.27
47054;BME280;32811;52.382;5.270;2023-04-10T12:03:41;101310.66;;;15.46;88.72
47054;BME280;32811;52.382;5.270;2023-04-10T12:06:11;101275.09;;;15.50;88.55
47054;BME280;32811;52.382;5.270;2023-04-10T12:08:41;101277.66;;;15.51;88.33
47054;BME280;32811;52.382;5.270;2023-04-10T12:11:09;101241.41;;;15.31;86.14
47054;BME280;32811;52.382;5.270;2023-04-10T12:13:36;101265.69;;;15.33;85.13
47054;BME280;32811;52.382;5.270;2023-04-10T12:16:06;101225.22;;;15.03;86.58
47054;BME280;32811;52.382;5.270;2023-04-10T12:18:34;101267.47;;;15.28;90.01
47054;BME280;32811;52.382;5.270;2023-04-10T12:21:01;101231.22;;;15.10;86.23
47054;BME280;32811;52.382;5.270;2023-04-10T12:23:31;101264.06;;;15.23;96.02
47054;BME280;32811;52.382;5.270;2023-04-10T12:26:11;101254.66;;;15.02;92.40
47054;BME280;32811;52.382;5.270;2023-04-10T12:28:40;101255.63;;;14.89;91.74
47054;BME280;32811;52.382;5.270;2023-04-10T12:31:07;101210.78;;;14.61;93.64
47054;BME280;32811;52.382;5.270;2023-04-10T12:33:34;101241.88;;;14.74;94.04
47054;BME280;32811;52.382;5.270;2023-04-10T12:36:01;101187.50;;;14.38;96.66
47054;BME280;32811;52.382;5.270;2023-04-10T12:41:02;101220.31;;;14.54;94.22
47054;BME280;32811;52.382;5.270;2023-04-10T12:43:31;101179.78;;;14.24;99.81
47054;BME280;32811;52.382;5.270;2023-04-10T12:45:59;101185.84;;;14.26;99.90
47054;BME280;32811;52.382;5.270;2023-04-10T12:48:25;101188.44;;;14.27;100.00
47054;BME280;32811;52.382;5.270;2023-04-10T12:50:52;101207.47;;;14.23;100.00
47054;BME280;32811;52.382;5.270;2023-04-10T12:53:19;101186.75;;;14.19;100.00
47054;BME280;32811;52.382;5.270;2023-04-10T12:55:56;101181.53;;;14.22;100.00
47054;BME280;32811;52.382;5.270;2023-04-10T12:58:24;101159.91;;;14.21;100.00
47054;BME280;32811;52.382;5.270;2023-04-10T13:01:01;101175.47;;;14.23;100.00
47054;BME280;32811;52.382;5.270;2023-04-10T13:03:28;101166.78;;;14.24;100.00
47054;BME280;32811;52.382;5.270;2023-04-10T13:05:56;101163.34;;;14.23;100.00
47054;BME280;32811;52.382;5.270;2023-04-10T13:08:22;101146.09;;;14.16;100.00
47054;BME280;32811;52.382;5.270;2023-04-10T13:10:49;101158.19;;;14.20;100.00
47054;BME280;32811;52.382;5.270;2023-04-10T13:13:16;101155.63;;;14.16;100.00
47054;BME280;32811;52.382;5.270;2023-04-10T13:15:43;101131.44;;;14.01;100.00
47054;BME280;32811;52.382;5.270;2023-04-10T13:18:09;101160.84;;;14.11;100.00
47054;BME280;32811;52.382;5.270;2023-04-10T13:20:38;101166.91;;;14.07;100.00
47054;BME280;32811;52.382;5.270;2023-04-10T13:23:06;101141.81;;;14.00;100.00
47054;BME280;32811;52.382;5.270;2023-04-10T13:25:35;101158.22;;;14.06;100.00
47054;BME280;32811;52.382;5.270;2023-04-10T13:28:02;101155.63;;;14.09;100.00
47054;BME280;32811;52.382;5.270;2023-04-10T13:30:37;101118.50;;;13.90;100.00
47054;BME280;32811;52.382;5.270;2023-04-10T13:33:04;101137.50;;;13.99;100.00
47054;BME280;32811;52.382;5.270;2023-04-10T13:35:31;101136.72;;;13.89;100.00
47054;BME280;32811;52.382;5.270;2023-04-10T13:37:59;101132.41;;;13.77;100.00
47054;BME280;32811;52.382;5.270;2023-04-10T13:40:26;101087.59;;;13.41;100.00